Time;durP1;ratioP1;P1;durP2;ratioP2;P2;SDS_P1;SDS_P2;PMS_P1;PMS_P2;Temp;Humidity;BMP_temperature;BMP_pressure;BME280_temperature;BME280_humidity;BME280_pressure;Samples;Min_cycle;Max_cycle;Signal;HPM_P1;HPM_P2
2021/05/11 00:00:56;;;;;;;11.27;10.57;;;12.80;99.90;;;;;;6267192;22;20401;-89
2021/05/11 00:03:28;;;;;;;9.50;8.90;;;12.80;99.90;;;;;;6266140;22;20154;-89
2021/05/11 00:05:53;;;;;;;7.80;7.30;;;12.80;99.90;;;;;;6266480;22;20726;-88
2021/05/11 00:08:19;;;;;;;7.50;7.00;;;12.90;99.90;;;;;;6265482;22;20401;-89
2021/05/11 00:10:44;;;;;;;8.37;7.87;;;13.00;99.90;;;;;;6266771;22;20173;-89
2021/05/11 00:13:10;;;;;;;9.63;9.03;;;12.90;99.90;;;;;;6266776;22;20166;-89
2021/05/11 00:15:36;;;;;;;8.33;7.73;;;12.80;99.90;;;;;;6265925;22;20539;-89
2021/05/11 00:18:02;;;;;;;9.70;9.10;;;12.70;99.90;;;;;;6266633;22;20162;-89
2021/05/11 00:20:27;;;;;;;8.60;8.00;;;12.70;99.90;;;;;;6266505;22;20193;-89
2021/05/11 00:22:53;;;;;;;8.60;8.10;;;12.70;99.90;;;;;;6267074;22;20589;-89
2021/05/11 00:25:21;;;;;;;8.40;7.90;;;12.60;99.90;;;;;;6266139;22;20170;-90
2021/05/11 00:28:04;;;;;;;10.30;9.60;;;12.60;99.90;;;;;;6265392;22;20169;-89
2021/05/11 00:30:29;;;;;;;10.00;9.30;;;12.50;99.90;;;;;;6265072;22;20395;-90
2021/05/11 00:32:55;;;;;;;10.87;10.10;;;12.60;99.90;;;;;;6266001;22;20484;-89
2021/05/11 00:35:21;;;;;;;12.50;11.60;;;12.60;99.90;;;;;;6265302;22;20173;-90
2021/05/11 00:37:46;;;;;;;11.47;10.67;;;12.60;99.90;;;;;;6266226;22;20504;-90
2021/05/11 00:40:13;;;;;;;11.40;10.50;;;12.60;99.90;;;;;;6266348;22;20170;-90
2021/05/11 00:42:39;;;;;;;12.67;11.73;;;12.60;99.90;;;;;;6215611;22;20188;-89
2021/05/11 00:45:05;;;;;;;14.50;13.20;;;12.70;99.90;;;;;;6265461;22;20401;-89
2021/05/11 00:47:50;;;;;;;14.03;12.73;;;12.60;99.90;;;;;;6265582;22;20405;-89
2021/05/11 00:50:16;;;;;;;13.87;12.70;;;12.60;99.90;;;;;;6265328;22;20433;-89
2021/05/11 00:52:41;;;;;;;12.57;11.57;;;12.60;99.90;;;;;;6266576;22;20369;-89
2021/05/11 00:55:09;;;;;;;13.43;12.33;;;12.60;99.90;;;;;;6266897;22;20221;-89
2021/05/11 00:57:35;;;;;;;14.20;13.00;;;12.60;99.90;;;;;;6268525;22;20387;-89
2021/05/11 01:00:05;;;;;;;14.67;13.37;;;12.60;99.90;;;;;;6267337;22;20490;-89
2021/05/11 01:02:31;;;;;;;12.97;11.97;;;12.70;99.90;;;;;;6270059;22;20385;-89
2021/05/11 01:04:57;;;;;;;11.00;10.20;;;12.70;99.90;;;;;;6269507;22;20387;-88
2021/05/11 01:07:22;;;;;;;11.20;10.30;;;12.70;99.90;;;;;;6269574;22;20168;-89
2021/05/11 01:09:48;;;;;;;12.60;11.60;;;12.80;99.90;;;;;;6267038;22;20475;-88
2021/05/11 01:12:14;;;;;;;10.70;9.90;;;12.80;99.90;;;;;;6268681;22;20166;-88
2021/05/11 01:14:39;;;;;;;12.93;11.83;;;12.70;99.90;;;;;;6267812;22;20162;-88
2021/05/11 01:17:05;;;;;;;12.30;11.33;;;12.60;99.90;;;;;;6267154;22;20216;-89
2021/05/11 01:19:45;;;;;;;12.07;11.17;;;12.50;99.90;;;;;;6267250;22;20291;-88
2021/05/11 01:24:42;;;;;;;15.03;13.70;;;12.50;99.90;;;;;;6269838;22;20442;-89
2021/05/11 01:30:10;;;;;;;16.77;15.27;;;12.40;99.90;;;;;;6268710;22;20392;-88
2021/05/11 01:33:07;;;;;;;14.53;13.23;;;12.30;99.90;;;;;;6267475;22;20478;-89
2021/05/11 01:46:36;;;;;;;12.60;11.50;;;12.50;99.90;;;;;;6270279;22;20656;-89
2021/05/11 01:49:11;;;;;;;10.60;9.80;;;12.40;99.90;;;;;;6266281;22;20458;-89
2021/05/11 02:10:48;;;;;;;15.17;13.77;;;12.50;99.90;;;;;;6269114;22;20423;-89
2021/05/11 02:23:52;;;;;;;17.03;15.43;;;12.40;99.90;;;;;;6268567;22;20169;-89
2021/05/11 02:26:18;;;;;;;16.17;14.20;;;12.40;99.90;;;;;;6267295;22;20441;-88
2021/05/11 02:28:43;;;;;;;13.83;12.53;;;12.40;99.90;;;;;;6267875;22;20158;-88
2021/05/11 02:31:09;;;;;;;14.70;13.27;;;12.40;99.90;;;;;;6266470;22;20497;-88
2021/05/11 02:33:35;;;;;;;13.27;11.90;;;12.40;99.90;;;;;;6267222;22;20173;-88
2021/05/11 02:36:00;;;;;;;13.80;12.50;;;12.40;99.90;;;;;;6266243;22;20227;-89
2021/05/11 02:38:26;;;;;;;15.57;14.10;;;12.40;99.90;;;;;;6266599;22;20534;-88
2021/05/11 02:40:52;;;;;;;14.40;13.03;;;12.30;99.90;;;;;;6267257;22;20242;-87
2021/05/11 02:43:21;;;;;;;12.47;11.27;;;12.30;99.90;;;;;;6267520;22;20635;-87
2021/05/11 02:45:47;;;;;;;15.90;14.23;;;12.40;99.90;;;;;;6266487;22;20162;-87
2021/05/11 02:48:13;;;;;;;16.87;15.33;;;12.40;99.90;;;;;;6266688;22;20424;-87
2021/05/11 02:50:38;;;;;;;18.40;16.60;;;12.40;99.90;;;;;;6267374;22;20194;-89
2021/05/11 02:53:05;;;;;;;19.30;17.40;;;12.30;99.90;;;;;;6267670;22;20173;-90
2021/05/11 02:55:31;;;;;;;18.40;16.53;;;12.40;99.90;;;;;;6267059;22;20261;-89
2021/05/11 02:57:57;;;;;;;17.50;15.70;;;12.40;99.90;;;;;;6267217;22;20393;-89
2021/05/11 03:00:25;;;;;;;17.80;16.07;;;12.30;99.90;;;;;;6266883;22;20408;-89
2021/05/11 03:02:51;;;;;;;17.17;15.57;;;12.40;99.90;;;;;;6267846;22;20385;-89
2021/05/11 03:05:17;;;;;;;17.10;15.30;;;12.40;99.90;;;;;;6266776;22;20408;-89
2021/05/11 03:07:43;;;;;;;15.57;14.07;;;12.20;99.90;;;;;;6267010;22;20397;-89
2021/05/11 03:10:10;;;;;;;15.10;13.60;;;12.20;99.90;;;;;;6267746;22;20841;-89
2021/05/11 03:12:36;;;;;;;17.20;15.50;;;12.20;99.90;;;;;;6267546;22;20245;-89
2021/05/11 03:15:04;;;;;;;16.70;14.90;;;12.10;99.90;;;;;;6266696;22;20404;-89
2021/05/11 03:17:31;;;;;;;17.00;15.00;;;12.00;99.90;;;;;;6266548;22;20385;-87
2021/05/11 03:19:56;;;;;;;16.63;14.90;;;12.00;99.90;;;;;;6267370;22;20437;-88
2021/05/11 03:22:22;;;;;;;15.83;12.90;;;11.90;99.90;;;;;;6267206;22;20530;-87
2021/05/11 03:24:48;;;;;;;15.20;13.70;;;12.00;99.90;;;;;;6267187;22;20213;-87
2021/05/11 03:27:14;;;;;;;13.87;12.47;;;12.00;99.90;;;;;;6266486;22;20158;-87
2021/05/11 03:29:41;;;;;;;15.50;14.00;;;12.10;99.90;;;;;;6267127;22;20553;-88
2021/05/11 03:32:08;;;;;;;15.60;14.00;;;12.10;99.90;;;;;;6266675;22;20381;-88
2021/05/11 03:34:35;;;;;;;13.93;12.53;;;12.20;99.90;;;;;;6266584;22;20397;-88
2021/05/11 03:37:01;;;;;;;15.47;13.87;;;12.20;99.90;;;;;;6266822;22;20704;-87
2021/05/11 03:39:26;;;;;;;14.13;12.73;;;12.20;99.90;;;;;;6266869;22;20444;-87
2021/05/11 03:41:59;;;;;;;12.43;11.23;;;12.20;99.90;;;;;;6267266;22;20162;-87
2021/05/11 03:44:28;;;;;;;12.77;11.40;;;12.30;99.90;;;;;;6266230;22;20165;-87
2021/05/11 03:46:53;;;;;;;11.90;10.37;;;12.30;99.90;;;;;;6267369;22;20458;-87
2021/05/11 03:49:21;;;;;;;10.83;9.63;;;12.30;99.90;;;;;;6267019;22;20417;-87
2021/05/11 03:51:47;;;;;;;10.30;8.80;;;12.30;99.90;;;;;;6266844;22;20189;-87
2021/05/11 03:54:13;;;;;;;9.63;8.33;;;12.40;99.90;;;;;;6266050;22;20397;-88
2021/05/11 03:56:39;;;;;;;11.10;9.60;;;12.40;99.90;;;;;;6266781;22;20423;-88
2021/05/11 03:59:05;;;;;;;8.03;7.20;;;12.50;99.90;;;;;;6267220;22;20533;-88
2021/05/11 04:01:32;;;;;;;9.23;8.10;;;12.50;99.90;;;;;;6266750;22;20161;-88
2021/05/11 04:03:59;;;;;;;10.90;8.80;;;12.50;99.90;;;;;;6264905;22;20393;-89
2021/05/11 04:06:25;;;;;;;9.97;8.83;;;12.50;99.90;;;;;;6266279;22;20393;-89
2021/05/11 04:16:42;;;;;;;10.10;8.43;;;12.50;99.90;;;;;;6268243;22;20762;-89
2021/05/11 04:19:08;;;;;;;10.77;8.97;;;12.50;99.90;;;;;;6266391;22;20441;-89
2021/05/11 04:21:37;;;;;;;16.87;15.20;;;12.50;99.90;;;;;;6266308;22;20393;-89
2021/05/11 04:24:04;;;;;;;11.33;9.27;;;12.50;99.90;;;;;;6266057;22;20824;-88
2021/05/11 04:26:30;;;;;;;8.43;7.17;;;12.50;99.90;;;;;;6267074;22;20381;-88
2021/05/11 04:28:56;;;;;;;10.53;7.27;;;12.70;99.90;;;;;;6265912;22;20883;-87
2021/05/11 04:31:22;;;;;;;11.03;9.60;;;12.80;99.90;;;;;;6266496;22;20475;-87
2021/05/11 04:33:47;;;;;;;13.57;12.27;;;12.80;99.90;;;;;;6266749;22;20403;-87
2021/05/11 04:36:14;;;;;;;13.30;11.90;;;12.80;99.90;;;;;;6265963;22;20150;-87
2021/05/11 04:38:41;;;;;;;11.17;9.20;;;12.70;99.90;;;;;;6266213;22;20194;-88
2021/05/11 04:41:07;;;;;;;12.13;9.60;;;12.70;99.90;;;;;;6266781;22;20771;-87
2021/05/11 04:43:37;;;;;;;14.13;9.57;;;12.70;99.90;;;;;;6266645;22;20405;-89
2021/05/11 04:48:49;;;;;;;11.13;9.30;;;12.90;99.90;;;;;;6268226;22;20419;-88
2021/05/11 04:51:15;;;;;;;11.63;9.43;;;12.80;99.90;;;;;;6266088;22;20722;-88
2021/05/11 04:53:41;;;;;;;13.73;10.23;;;12.90;99.90;;;;;;6266256;22;20409;-87
2021/05/11 04:56:07;;;;;;;14.20;10.23;;;12.90;99.90;;;;;;6265804;22;20392;-88
2021/05/11 04:58:34;;;;;;;15.47;10.87;;;12.80;99.90;;;;;;6266458;22;20521;-88
2021/05/11 05:01:03;;;;;;;14.80;10.80;;;12.80;99.90;;;;;;6266059;22;20472;-89
2021/05/11 05:03:31;;;;;;;13.97;10.50;;;12.80;99.90;;;;;;6266168;22;20670;-87
2021/05/11 05:05:58;;;;;;;15.97;10.70;;;12.70;99.90;;;;;;6266163;22;20429;-88
2021/05/11 05:08:24;;;;;;;16.80;12.33;;;12.60;99.90;;;;;;6264754;22;20430;-90
2021/05/11 05:10:53;;;;;;;16.27;11.90;;;12.70;99.90;;;;;;6266364;22;20886;-87
2021/05/11 05:13:23;;;;;;;18.40;12.43;;;12.60;99.90;;;;;;6266355;22;20401;-87
2021/05/11 05:15:53;;;;;;;16.90;13.47;;;12.60;99.90;;;;;;6266492;22;20393;-90
2021/05/11 05:18:19;;;;;;;20.97;14.00;;;12.60;99.90;;;;;;6266700;22;20984;-87
2021/05/11 05:20:46;;;;;;;19.07;14.10;;;12.70;99.90;;;;;;6265756;22;20397;-88
2021/05/11 05:23:14;;;;;;;18.03;13.73;;;12.80;99.90;;;;;;6266886;22;20468;-87
2021/05/11 05:25:40;;;;;;;21.50;14.20;;;12.80;99.90;;;;;;6266145;22;20401;-87
2021/05/11 05:28:09;;;;;;;16.10;11.90;;;12.90;99.90;;;;;;6266935;22;20890;-86
2021/05/11 05:30:34;;;;;;;18.50;13.13;;;12.90;99.90;;;;;;6265907;22;20404;-87
2021/05/11 05:33:03;;;;;;;19.43;14.30;;;13.00;99.90;;;;;;6266757;22;20396;-87
2021/05/11 05:35:30;;;;;;;21.87;13.13;;;12.80;99.90;;;;;;6266497;22;20168;-88
2021/05/11 05:37:56;;;;;;;19.53;13.90;;;12.80;99.90;;;;;;6266071;22;20706;-87
2021/05/11 05:40:23;;;;;;;19.10;13.60;;;12.70;99.90;;;;;;6260137;22;20408;-86
2021/05/11 05:42:49;;;;;;;20.47;14.20;;;12.70;99.90;;;;;;6266258;22;20401;-87
2021/05/11 05:45:15;;;;;;;18.67;14.43;;;12.80;99.90;;;;;;6267361;22;20475;-87
2021/05/11 05:47:50;;;;;;;20.30;15.50;;;12.90;99.90;;;;;;6267802;22;20186;-89
2021/05/11 05:50:29;;;;;;;20.20;13.90;;;13.00;99.90;;;;;;6267563;22;20442;-91
2021/05/11 05:53:04;;;;;;;21.20;15.27;;;13.20;99.90;;;;;;6267704;22;20396;-91
2021/05/11 05:55:30;;;;;;;23.83;17.77;;;13.10;99.90;;;;;;6266266;22;20395;-89
2021/05/11 05:57:56;;;;;;;24.20;17.63;;;13.10;99.90;;;;;;6266836;22;20393;-89
2021/05/11 06:00:23;;;;;;;13.70;11.40;;;13.10;99.90;;;;;;6266473;22;20450;-90
2021/05/11 06:02:52;;;;;;;23.83;13.53;;;13.00;99.90;;;;;;6267095;22;20420;-88
2021/05/11 06:05:19;;;;;;;15.80;12.20;;;13.00;99.90;;;;;;6266384;22;20887;-88
2021/05/11 06:07:44;;;;;;;17.13;12.97;;;13.10;99.90;;;;;;6266875;22;20405;-89
2021/05/11 06:10:11;;;;;;;18.27;13.33;;;13.10;99.90;;;;;;6266751;22;20742;-89
2021/05/11 06:17:40;;;;;;;19.67;15.10;;;13.30;99.90;;;;;;6269235;22;20749;-89
2021/05/11 06:20:06;;;;;;;16.57;12.70;;;13.30;99.90;;;;;;6267650;22;20448;-89
2021/05/11 06:22:31;;;;;;;17.40;10.90;;;13.20;99.90;;;;;;6266712;22;20861;-88
2021/05/11 06:24:57;;;;;;;13.97;10.63;;;13.30;99.90;;;;;;6267036;22;20429;-88
2021/05/11 06:27:23;;;;;;;15.70;11.83;;;13.40;99.90;;;;;;6267082;22;20158;-89
2021/05/11 06:29:55;;;;;;;14.47;10.57;;;13.50;99.90;;;;;;6267204;22;20185;-88
2021/05/11 06:32:21;;;;;;;15.67;11.40;;;13.60;99.90;;;;;;6267499;22;20182;-89
2021/05/11 06:34:54;;;;;;;14.67;10.93;;;13.80;99.90;;;;;;6267277;22;20396;-90
2021/05/11 06:37:19;;;;;;;18.43;12.23;;;13.80;99.90;;;;;;6266248;22;20392;-89
2021/05/11 06:39:48;;;;;;;13.07;10.77;;;13.90;99.90;;;;;;6266003;22;20843;-89
2021/05/11 06:42:15;;;;;;;17.20;11.43;;;13.90;99.90;;;;;;6267148;22;20300;-89
2021/05/11 06:55:07;;;;;;;16.50;11.20;;;13.90;99.90;;;;;;6268460;22;20396;-90
2021/05/11 06:57:33;;;;;;;16.40;11.27;;;13.80;99.90;;;;;;6267059;22;20771;-90
2021/05/11 07:00:08;;;;;;;14.20;9.60;;;13.70;99.90;;;;;;6267546;22;20443;-92
2021/05/11 07:02:33;;;;;;;14.63;10.17;;;13.60;99.90;;;;;;6266881;22;20158;-90
2021/05/11 07:04:59;;;;;;;13.40;10.00;;;13.70;99.90;;;;;;6267698;22;20399;-90
2021/05/11 07:07:26;;;;;;;11.40;8.90;;;13.80;99.90;;;;;;6267868;22;20158;-90
2021/05/11 07:15:03;;;;;;;12.50;9.60;;;13.60;99.90;;;;;;6269341;22;20713;-89
2021/05/11 07:17:28;;;;;;;13.10;9.40;;;13.50;99.90;;;;;;6267493;22;20875;-89
2021/05/11 07:19:55;;;;;;;17.47;10.10;;;13.80;99.90;;;;;;6267135;22;20443;-90
2021/05/11 07:22:30;;;;;;;15.73;11.17;;;13.80;99.90;;;;;;6268623;22;20223;-90
2021/05/11 07:24:57;;;;;;;11.17;9.00;;;13.70;99.90;;;;;;6262649;22;20401;-90
2021/05/11 07:30:11;;;;;;;9.17;8.07;;;14.30;99.90;;;;;;6268906;22;20450;-90
2021/05/11 07:32:38;;;;;;;10.20;8.50;;;14.40;99.90;;;;;;6267560;22;20400;-89
2021/05/11 07:35:05;;;;;;;11.23;8.20;;;14.30;99.90;;;;;;6266847;22;20400;-89
2021/05/11 07:37:30;;;;;;;12.40;9.10;;;14.50;99.90;;;;;;6266643;22;20412;-89
2021/05/11 07:39:56;;;;;;;11.50;8.60;;;14.50;99.90;;;;;;6266920;22;20639;-89
2021/05/11 07:42:22;;;;;;;9.90;8.03;;;14.60;99.90;;;;;;6241169;22;20167;-89
2021/05/11 07:44:50;;;;;;;11.17;9.60;;;15.00;99.90;;;;;;6268951;22;20159;-89
2021/05/11 08:03:38;;;;;;;10.43;9.33;;;15.00;99.90;;;;;;6266832;22;20672;-91
2021/05/11 08:17:01;;;;;;;15.23;9.70;;;15.00;99.90;;;;;;6266645;22;20897;-92
2021/05/11 08:19:58;;;;;;;8.73;7.80;;;15.20;99.90;;;;;;6266295;22;20436;-89
2021/05/11 08:27:42;;;;;;;10.00;9.00;;;15.30;99.90;;;;;;6267125;22;20388;-87
2021/05/11 08:30:15;;;;;;;10.67;7.97;;;15.30;99.90;;;;;;6265545;22;20398;-88
2021/05/11 08:32:41;;;;;;;10.03;8.00;;;15.00;99.90;;;;;;6265545;22;20405;-88
2021/05/11 08:35:07;;;;;;;9.00;8.03;;;15.00;99.90;;;;;;6265419;22;20726;-87
2021/05/11 08:37:34;;;;;;;10.03;8.93;;;15.00;99.90;;;;;;6263661;22;20415;-87
2021/05/11 08:40:00;;;;;;;10.50;9.37;;;15.00;99.90;;;;;;6266570;22;20296;-88
2021/05/11 08:42:25;;;;;;;10.23;8.93;;;15.00;99.90;;;;;;6266263;22;20395;-85
2021/05/11 08:44:54;;;;;;;11.60;8.10;;;15.40;99.90;;;;;;6266020;22;20397;-85
2021/05/11 08:47:20;;;;;;;13.17;8.30;;;15.80;99.90;;;;;;6266022;22;20299;-85
2021/05/11 08:49:47;;;;;;;10.43;8.10;;;15.90;99.90;;;;;;6266585;22;20911;-85
2021/05/11 08:52:46;;;;;;;9.37;8.23;;;16.10;99.90;;;;;;6265825;22;20392;-85
2021/05/11 09:25:26;;;;;;;10.03;8.60;;;16.10;99.90;;;;;;6268189;22;20392;-85
2021/05/11 09:28:05;;;;;;;8.37;7.57;;;16.50;99.90;;;;;;6267439;22;20376;-85
2021/05/11 10:10:29;;;;;;;9.70;8.47;;;16.40;99.90;;;;;;6269568;22;20899;-87
2021/05/11 10:48:27;;;;;;;7.53;6.83;;;15.90;99.90;;;;;;6265817;22;20545;-87
2021/05/11 10:51:01;;;;;;;7.23;6.30;;;15.70;99.90;;;;;;6265746;22;20401;-88
2021/05/11 10:54:08;;;;;;;6.93;6.27;;;15.80;99.90;;;;;;6265984;22;20383;-88
2021/05/11 10:56:45;;;;;;;6.27;5.50;;;16.00;99.90;;;;;;6267232;22;20468;-87
2021/05/11 11:01:52;;;;;;;7.43;6.73;;;16.60;99.90;;;;;;6267342;22;20443;-88
2021/05/11 11:04:22;;;;;;;7.20;6.10;;;16.20;99.90;;;;;;6266094;22;20401;-86
2021/05/11 11:07:00;;;;;;;7.07;6.47;;;16.30;99.90;;;;;;6266737;22;20463;-87
2021/05/11 11:09:27;;;;;;;6.80;6.07;;;16.60;99.90;;;;;;6265692;22;20884;-87
2021/05/11 11:11:54;;;;;;;5.77;4.73;;;16.10;99.90;;;;;;6266127;22;20444;-87
2021/05/11 11:14:20;;;;;;;5.60;5.10;;;16.10;99.90;;;;;;6265183;22;20405;-87
2021/05/11 11:16:46;;;;;;;5.00;4.60;;;16.20;99.90;;;;;;6266265;22;20484;-87
2021/05/11 11:19:15;;;;;;;5.80;5.30;;;16.30;99.90;;;;;;6265165;22;20938;-86
2021/05/11 11:24:37;;;;;;;6.03;5.53;;;17.20;99.90;;;;;;6268594;22;20420;-87
2021/05/11 11:27:04;;;;;;;6.60;6.00;;;17.00;99.90;;;;;;6266517;22;20471;-86
2021/05/11 11:29:30;;;;;;;7.00;6.30;;;16.90;99.90;;;;;;6264159;22;20444;-86
2021/05/11 11:32:00;;;;;;;6.20;5.30;;;17.10;99.90;;;;;;6266386;22;20778;-86
2021/05/11 11:34:36;;;;;;;6.83;5.60;;;17.20;99.90;;;;;;6265738;22;20484;-86
2021/05/11 11:37:09;;;;;;;5.57;5.07;;;17.70;99.90;;;;;;6264798;22;20944;-87
2021/05/11 11:39:46;;;;;;;5.90;5.30;;;17.60;99.90;;;;;;6265799;22;20447;-88
2021/05/11 11:42:38;;;;;;;5.07;4.67;;;17.60;99.90;;;;;;6266356;22;20396;-89
2021/05/11 11:45:11;;;;;;;8.63;6.23;;;17.60;99.90;;;;;;6267014;22;20385;-90
2021/05/11 11:47:42;;;;;;;6.20;5.60;;;18.20;99.90;;;;;;6266107;22;20428;-89
2021/05/11 11:50:11;;;;;;;6.40;5.80;;;18.30;99.90;;;;;;6267334;22;20396;-92
2021/05/11 11:52:49;;;;;;;8.90;6.00;;;18.10;99.90;;;;;;6264730;22;20405;-87
2021/05/11 11:55:36;;;;;;;7.80;7.10;;;18.30;99.90;;;;;;6267312;22;20431;-85
2021/05/11 11:58:02;;;;;;;7.30;6.60;;;18.30;99.90;;;;;;6265108;22;20392;-87
2021/05/11 12:00:33;;;;;;;8.03;7.30;;;17.90;99.90;;;;;;6266037;22;20988;-85
2021/05/11 12:03:07;;;;;;;10.43;8.17;;;18.10;99.90;;;;;;6266890;22;20663;-86
2021/05/11 12:05:38;;;;;;;8.20;7.40;;;18.50;99.90;;;;;;6265297;22;20483;-85
2021/05/11 12:08:20;;;;;;;7.90;7.10;;;18.50;99.90;;;;;;6266599;22;20404;-86
2021/05/11 12:10:51;;;;;;;9.43;8.43;;;19.00;99.90;;;;;;6260226;22;20831;-85
2021/05/11 12:13:32;;;;;;;9.70;8.30;;;18.60;99.90;;;;;;6265849;22;20743;-87
2021/05/11 12:16:16;;;;;;;9.50;8.60;;;18.20;99.90;;;;;;6267402;22;20879;-84
2021/05/11 12:19:21;;;;;;;9.90;8.87;;;18.80;99.90;;;;;;6265328;22;20424;-85
2021/05/11 12:22:01;;;;;;;10.83;9.63;;;19.30;99.90;;;;;;6266387;22;20392;-86
2021/05/11 12:24:40;;;;;;;10.60;8.77;;;19.20;99.90;;;;;;6265553;22;20392;-88
2021/05/11 12:27:26;;;;;;;12.70;9.93;;;19.30;99.90;;;;;;6265696;22;20405;-89
2021/05/11 12:30:16;;;;;;;11.73;10.50;;;19.00;99.90;;;;;;6264969;22;20432;-87
2021/05/11 12:32:47;;;;;;;12.50;11.30;;;18.90;99.90;;;;;;6267483;22;20372;-85
2021/05/11 12:35:17;;;;;;;11.07;10.00;;;19.00;99.90;;;;;;6264313;22;20470;-87
2021/05/11 12:37:48;;;;;;;11.03;9.80;;;19.20;99.90;;;;;;6239786;22;20381;-82
2021/05/11 12:42:50;;;;;;;12.73;11.40;;;19.50;99.90;;;;;;6260316;22;20396;-87
2021/05/11 12:45:17;;;;;;;13.10;11.73;;;19.70;99.90;;;;;;6260534;22;20396;-85
2021/05/11 12:47:50;;;;;;;11.43;10.43;;;19.70;99.90;;;;;;6260286;22;20600;-84
2021/05/11 12:50:25;;;;;;;12.50;11.40;;;20.00;99.90;;;;;;6260144;22;20396;-84
2021/05/11 12:52:52;;;;;;;11.47;10.47;;;19.50;99.90;;;;;;6258796;22;20720;-84
2021/05/11 12:56:26;;;;;;;10.63;9.73;;;19.60;99.90;;;;;;6257475;22;20397;-86
2021/05/11 12:58:58;;;;;;;10.50;9.60;;;19.20;99.90;;;;;;6247563;22;20693;-83
2021/05/11 13:01:27;;;;;;;10.73;9.77;;;18.50;99.90;;;;;;6258758;22;20404;-84
2021/05/11 13:13:42;;;;;;;9.97;9.07;;;18.40;99.90;;;;;;6260381;22;20451;-84
2021/05/11 13:25:42;;;;;;;5.33;4.83;;;17.80;99.90;;;;;;6261072;22;20408;-84
2021/05/11 13:35:34;;;;;;;8.83;8.13;;;17.20;99.90;;;;;;6260887;22;20422;-84
2021/05/11 13:38:01;;;;;;;8.50;7.80;;;16.90;99.90;;;;;;6256925;22;20401;-82
2021/05/11 13:40:26;;;;;;;8.30;7.63;;;16.60;99.90;;;;;;6259279;22;20436;-84
2021/05/11 13:42:52;;;;;;;8.40;7.70;;;16.40;99.90;;;;;;6258702;22;20393;-85
2021/05/11 13:45:18;;;;;;;9.27;8.37;;;16.20;99.90;;;;;;6259247;22;20188;-87
2021/05/11 13:47:56;;;;;;;9.80;8.87;;;16.00;99.90;;;;;;6258961;22;20596;-84
2021/05/11 13:50:27;;;;;;;9.90;9.00;;;15.80;99.90;;;;;;6258606;22;20891;-85
2021/05/11 13:52:53;;;;;;;9.67;8.70;;;15.50;99.90;;;;;;6258747;22;20399;-84
2021/05/11 13:55:25;;;;;;;11.17;10.27;;;15.40;99.90;;;;;;6259268;22;20393;-84
2021/05/11 14:03:02;;;;;;;11.20;10.30;;;14.80;99.90;;;;;;6262098;22;20165;-85
2021/05/11 14:05:27;;;;;;;12.37;11.17;;;14.70;99.90;;;;;;6260992;22;20600;-86
2021/05/11 14:07:53;;;;;;;11.97;10.90;;;14.70;99.90;;;;;;6260415;22;20397;-85
2021/05/11 14:10:18;;;;;;;12.17;11.17;;;14.60;99.90;;;;;;6261611;22;20162;-86
2021/05/11 14:12:45;;;;;;;14.17;12.97;;;14.60;99.90;;;;;;6261483;22;20473;-86
2021/05/11 14:15:12;;;;;;;14.57;13.20;;;14.70;99.90;;;;;;6260489;22;20677;-86
2021/05/11 14:17:37;;;;;;;15.17;14.00;;;14.70;99.90;;;;;;6260175;22;20397;-87
2021/05/11 14:20:04;;;;;;;15.23;14.00;;;14.60;99.90;;;;;;6262101;22;20822;-86
2021/05/11 14:22:29;;;;;;;14.90;13.70;;;14.60;99.90;;;;;;6261327;22;20158;-87
2021/05/11 14:24:55;;;;;;;15.10;13.60;;;14.50;99.90;;;;;;6260280;22;20534;-85
2021/05/11 14:27:21;;;;;;;17.03;15.67;;;14.50;99.90;;;;;;6260710;22;20416;-85
2021/05/11 14:29:47;;;;;;;17.63;16.13;;;14.40;99.90;;;;;;6260841;22;20166;-86
2021/05/11 14:32:13;;;;;;;17.17;15.73;;;14.30;99.90;;;;;;6259830;22;20800;-86
2021/05/11 14:34:41;;;;;;;15.20;13.80;;;14.20;99.90;;;;;;6258842;22;20166;-86
2021/05/11 14:37:07;;;;;;;15.90;14.50;;;14.20;99.90;;;;;;6260528;22;20530;-86
2021/05/11 14:39:32;;;;;;;15.97;14.47;;;14.30;99.90;;;;;;6260606;22;20441;-86
2021/05/11 14:41:58;;;;;;;14.10;12.80;;;14.20;99.90;;;;;;6260683;22;20510;-87
2021/05/11 14:44:25;;;;;;;14.10;12.80;;;14.20;99.90;;;;;;6260748;22;20249;-86
2021/05/11 14:46:52;;;;;;;14.07;12.67;;;14.30;99.90;;;;;;6260896;22;20196;-84
2021/05/11 14:49:18;;;;;;;12.83;11.60;;;14.30;99.90;;;;;;6261051;22;20416;-87
2021/05/11 14:51:44;;;;;;;10.17;9.27;;;14.20;99.90;;;;;;6260670;22;20446;-86
2021/05/11 14:54:10;;;;;;;10.47;8.67;;;14.10;99.90;;;;;;6260953;22;20405;-86
2021/05/11 14:56:40;;;;;;;10.97;9.63;;;13.90;99.90;;;;;;6261263;22;20674;-85
2021/05/11 14:59:10;;;;;;;10.47;9.47;;;13.80;99.90;;;;;;6260193;22;20529;-84
2021/05/11 15:01:37;;;;;;;11.13;10.03;;;13.80;99.90;;;;;;6261175;22;20396;-85
2021/05/11 15:04:03;;;;;;;10.40;9.40;;;13.90;99.90;;;;;;6260385;22;20432;-84
2021/05/11 15:06:29;;;;;;;11.10;9.77;;;13.80;99.90;;;;;;6260547;22;20889;-85
2021/05/11 15:08:55;;;;;;;11.47;10.47;;;13.80;99.90;;;;;;6260248;22;20401;-85
2021/05/11 15:11:21;;;;;;;10.97;10.00;;;13.70;99.90;;;;;;6260207;22;20467;-86
2021/05/11 15:13:49;;;;;;;9.90;9.00;;;13.70;99.90;;;;;;6261288;22;20404;-85
2021/05/11 15:16:21;;;;;;;10.00;9.00;;;13.70;99.90;;;;;;6259956;22;20781;-86
2021/05/11 15:18:47;;;;;;;9.33;8.07;;;13.80;99.90;;;;;;6265055;22;20421;-85
2021/05/11 15:21:13;;;;;;;9.00;8.13;;;13.70;99.90;;;;;;6264769;22;20434;-84
2021/05/11 15:23:41;;;;;;;9.03;8.13;;;13.60;99.90;;;;;;6241206;22;20412;-86
2021/05/11 15:26:07;;;;;;;9.33;8.37;;;13.60;99.90;;;;;;6266370;22;20423;-85
2021/05/11 15:28:32;;;;;;;11.43;10.17;;;13.60;99.90;;;;;;6266610;22;20385;-84
2021/05/11 15:30:58;;;;;;;11.90;9.60;;;13.50;99.90;;;;;;6266458;22;20192;-85
2021/05/11 15:33:25;;;;;;;10.73;9.63;;;13.30;99.90;;;;;;6266279;22;20228;-84
2021/05/11 15:35:51;;;;;;;11.77;10.40;;;13.30;99.90;;;;;;6266540;22;20526;-86
2021/05/11 15:38:16;;;;;;;10.30;8.97;;;13.30;99.90;;;;;;6260801;22;20483;-85
2021/05/11 15:40:43;;;;;;;9.50;8.53;;;13.30;99.90;;;;;;6260994;22;20616;-85
2021/05/11 15:43:09;;;;;;;12.90;9.87;;;13.30;99.90;;;;;;6259082;22;20166;-86
2021/05/11 15:45:36;;;;;;;13.50;11.73;;;13.30;99.90;;;;;;6259844;22;20389;-86
2021/05/11 15:48:03;;;;;;;11.73;10.73;;;13.30;99.90;;;;;;6260842;22;20500;-86
2021/05/11 15:50:54;;;;;;;11.67;9.90;;;13.30;99.90;;;;;;6260600;22;20397;-84
2021/05/11 15:53:19;;;;;;;8.90;8.10;;;13.40;99.90;;;;;;6260118;22;20408;-83
2021/05/11 15:55:49;;;;;;;7.07;6.37;;;13.30;99.90;;;;;;6260297;22;20392;-84
2021/05/11 15:58:17;;;;;;;6.07;5.47;;;13.10;99.90;;;;;;6259853;22;20223;-86
2021/05/11 16:00:46;;;;;;;5.17;4.63;;;12.90;99.90;;;;;;6259930;22;20404;-85
2021/05/11 16:03:12;;;;;;;3.60;3.30;;;12.90;99.90;;;;;;6260289;22;20397;-86
2021/05/11 16:05:39;;;;;;;3.27;2.70;;;12.80;99.90;;;;;;6259550;22;20726;-86
2021/05/11 16:08:10;;;;;;;2.90;2.50;;;12.80;99.90;;;;;;6259701;22;20483;-85
2021/05/11 16:10:36;;;;;;;3.93;1.50;;;12.70;99.90;;;;;;6260181;22;20777;-86
2021/05/11 16:13:03;;;;;;;1.63;1.53;;;12.70;99.90;;;;;;6259634;22;20484;-85
2021/05/11 16:15:29;;;;;;;1.50;1.40;;;12.50;99.90;;;;;;6259483;22;20427;-85
2021/05/11 16:17:55;;;;;;;1.47;1.43;;;12.50;99.90;;;;;;6258677;22;20492;-85
2021/05/11 16:20:21;;;;;;;2.90;2.70;;;12.50;99.90;;;;;;6251936;22;20440;-85
2021/05/11 16:22:47;;;;;;;3.60;3.30;;;12.50;99.90;;;;;;6257777;22;20393;-85
2021/05/11 16:25:14;;;;;;;4.77;4.23;;;12.50;99.90;;;;;;6258380;22;20458;-86
2021/05/11 16:27:40;;;;;;;6.13;5.60;;;12.60;99.90;;;;;;6260167;22;20395;-85
2021/05/11 16:30:12;;;;;;;5.70;5.20;;;12.60;99.90;;;;;;6259979;22;20400;-87
2021/05/11 16:32:38;;;;;;;5.50;5.00;;;12.80;99.90;;;;;;6257953;22;20487;-85
2021/05/11 16:35:06;;;;;;;6.00;5.60;;;12.80;99.90;;;;;;6258302;22;20429;-84
2021/05/11 16:37:32;;;;;;;5.47;5.07;;;12.90;99.90;;;;;;6258955;22;20389;-83
2021/05/11 16:39:57;;;;;;;5.43;4.80;;;13.00;99.90;;;;;;6257863;22;20474;-82
2021/05/11 16:42:23;;;;;;;7.17;5.40;;;13.00;99.90;;;;;;6258473;22;20215;-85
2021/05/11 16:44:48;;;;;;;5.37;4.97;;;13.00;99.90;;;;;;6259829;22;20170;-85
2021/05/11 16:47:14;;;;;;;5.17;4.70;;;12.90;99.90;;;;;;6258498;22;20166;-83
2021/05/11 16:49:44;;;;;;;5.27;4.77;;;12.90;99.90;;;;;;6258028;22;20506;-85
2021/05/11 16:52:11;;;;;;;3.37;3.10;;;12.90;99.90;;;;;;6258543;22;20170;-85
2021/05/11 16:54:37;;;;;;;4.30;3.93;;;12.90;99.90;;;;;;6259673;22;20739;-85
2021/05/11 16:57:02;;;;;;;7.40;5.03;;;12.80;99.90;;;;;;6259781;22;20389;-85
2021/05/11 16:59:28;;;;;;;9.67;5.80;;;12.90;99.90;;;;;;6258847;22;20441;-85
2021/05/11 17:01:54;;;;;;;6.03;4.93;;;12.80;99.90;;;;;;6258859;22;20166;-84